Time;durP1;ratioP1;P1;durP2;ratioP2;P2;SDS_P1;SDS_P2;PMS_P1;PMS_P2;Temp;Humidity;BMP_temperature;BMP_pressure;BME280_temperature;BME280_humidity;BME280_pressure;Samples;Min_cycle;Max_cycle;Signal;HPM_P1;HPM_P2
2021/11/23 00:02:24;;;;;;;5.50;2.78;;;;;;;-1.12;92.24;102515.44;5012546;28;20029;-50
2021/11/23 00:04:51;;;;;;;5.07;2.53;;;;;;;-1.12;92.53;102512.81;5016065;28;20022;-51
2021/11/23 00:07:17;;;;;;;4.90;2.72;;;;;;;-1.11;93.18;102513.66;5011778;28;20481;-51
2021/11/23 00:09:42;;;;;;;4.05;2.50;;;;;;;-1.02;93.06;102518.97;4993414;28;20503;-52
2021/11/23 00:12:08;;;;;;;6.15;2.70;;;;;;;-0.95;92.49;102514.88;4992875;28;20064;-49
2021/11/23 00:14:34;;;;;;;4.15;2.50;;;;;;;-0.95;93.22;102512.22;4994844;28;20173;-52
2021/11/23 00:17:00;;;;;;;6.10;2.63;;;;;;;-0.97;93.06;102516.78;4997423;28;20395;-52
2021/11/23 00:19:25;;;;;;;6.18;3.25;;;;;;;-0.86;92.30;102504.53;5007501;28;20391;-49
2021/11/23 00:21:51;;;;;;;3.67;2.40;;;;;;;-0.86;92.40;102505.38;4992248;28;20034;-52
2021/11/23 00:24:16;;;;;;;4.43;2.35;;;;;;;-0.81;91.30;102504.97;4992316;28;20037;-53
2021/11/23 00:26:42;;;;;;;5.47;2.70;;;;;;;-0.82;91.90;102504.13;4993274;28;20097;-49
2021/11/23 00:29:07;;;;;;;6.45;2.72;;;;;;;-0.84;92.61;102510.50;4991836;28;20116;-52
2021/11/23 00:31:33;;;;;;;4.85;2.90;;;;;;;-0.80;92.18;102517.16;4994045;28;20412;-52
2021/11/23 00:33:58;;;;;;;4.60;2.58;;;;;;;-0.77;91.86;102511.63;4994338;28;20121;-51
2021/11/23 00:36:24;;;;;;;4.65;2.83;;;;;;;-0.79;92.81;102508.31;4991041;28;20230;-52
2021/11/23 00:38:49;;;;;;;7.85;3.28;;;;;;;-0.76;92.57;102503.59;4992489;28;20058;-53
2021/11/23 00:41:17;;;;;;;7.30;2.92;;;;;;;-0.70;91.83;102503.09;4994922;28;20433;-53
2021/11/23 00:43:44;;;;;;;6.28;2.75;;;;;;;-0.64;91.22;102505.19;4994765;28;20045;-51
2021/11/23 00:46:11;;;;;;;4.70;2.70;;;;;;;-0.62;92.47;102500.63;4992579;28;20052;-50
2021/11/23 00:48:37;;;;;;;4.90;2.72;;;;;;;-0.51;92.98;102498.88;4997003;28;20484;-52
2021/11/23 00:51:03;;;;;;;4.05;3.10;;;;;;;-0.39;93.20;102509.16;4991725;28;20050;-51
2021/11/23 00:53:29;;;;;;;5.82;2.80;;;;;;;-0.23;92.02;102515.75;4997062;28;20152;-52
2021/11/23 00:55:55;;;;;;;4.63;2.85;;;;;;;-0.12;91.34;102520.91;4998011;28;20153;-52
2021/11/23 00:58:20;;;;;;;6.53;3.28;;;;;;;-0.01;90.91;102516.34;4996949;28;20087;-50
2021/11/23 01:00:46;;;;;;;7.72;3.08;;;;;;;0.10;90.63;102512.78;4998065;28;20038;-53
2021/11/23 01:03:13;;;;;;;8.75;2.75;;;;;;;0.20;91.50;102512.81;4996764;28;20046;-49
2021/11/23 01:05:38;;;;;;;7.65;2.92;;;;;;;0.29;91.99;102517.25;4996345;28;20046;-53
2021/11/23 01:08:05;;;;;;;4.82;2.80;;;;;;;0.37;92.32;102516.56;5009436;28;20034;-51
2021/11/23 01:10:31;;;;;;;5.90;3.35;;;;;;;0.45;91.83;102506.97;4995692;28;20060;-50
2021/11/23 01:12:57;;;;;;;5.97;3.25;;;;;;;0.44;92.51;102499.22;4996905;28;20030;-53
2021/11/23 01:15:23;;;;;;;7.70;3.08;;;;;;;0.50;92.33;102483.66;4997108;28;20030;-52
2021/11/23 01:17:49;;;;;;;8.07;3.17;;;;;;;0.58;91.87;102486.44;4997934;28;20026;-52
2021/11/23 01:20:15;;;;;;;7.90;3.38;;;;;;;0.63;91.67;102483.38;4996319;28;20026;-51
2021/11/23 01:22:43;;;;;;;8.93;4.13;;;;;;;0.63;91.85;102464.91;4993767;28;20034;-52
2021/11/23 01:25:09;;;;;;;7.75;3.50;;;;;;;0.71;91.66;102457.09;4998191;28;20064;-52
2021/11/23 01:27:35;;;;;;;5.32;3.22;;;;;;;0.74;91.43;102464.75;4998078;28;20667;-52
2021/11/23 01:30:03;;;;;;;6.35;3.55;;;;;;;0.79;91.25;102467.81;4999389;28;20042;-52
2021/11/23 01:32:29;;;;;;;9.23;4.13;;;;;;;0.84;90.79;102468.19;4995073;28;20034;-53
2021/11/23 01:34:54;;;;;;;6.63;3.72;;;;;;;0.90;90.76;102459.72;4997918;28;20037;-53
2021/11/23 01:37:20;;;;;;;5.97;3.22;;;;;;;0.92;90.91;102448.19;4993961;28;20034;-51
2021/11/23 01:39:45;;;;;;;6.35;3.50;;;;;;;0.84;92.30;102452.38;4998928;28;20113;-52
2021/11/23 01:42:11;;;;;;;5.43;3.30;;;;;;;0.95;91.05;102461.94;4993190;28;20033;-52
2021/11/23 01:44:36;;;;;;;6.25;3.50;;;;;;;0.98;91.57;102460.81;4995836;28;20707;-53
2021/11/23 01:47:02;;;;;;;7.32;3.58;;;;;;;1.07;90.89;102466.06;4996514;28;20029;-53
2021/11/23 01:49:27;;;;;;;8.10;3.63;;;;;;;1.07;91.25;102454.66;4994466;28;20104;-51
2021/11/23 01:51:53;;;;;;;6.28;3.85;;;;;;;1.15;90.93;102454.78;4997102;28;20093;-51
2021/11/23 01:54:19;;;;;;;6.05;3.70;;;;;;;1.13;91.46;102447.00;4997120;28;20114;-51
2021/11/23 01:56:44;;;;;;;8.52;3.53;;;;;;;1.16;91.27;102443.25;4999336;28;20034;-51
2021/11/23 01:59:10;;;;;;;8.95;4.07;;;;;;;1.26;90.78;102441.41;4995927;28;20586;-51
2021/11/23 02:01:36;;;;;;;5.85;3.60;;;;;;;1.26;90.49;102435.28;4995381;28;20668;-53
2021/11/23 02:04:04;;;;;;;9.65;3.95;;;;;;;1.31;90.16;102436.53;4997056;28;20030;-50
2021/11/23 02:06:30;;;;;;;9.93;4.20;;;;;;;1.29;90.85;102433.19;4991452;28;20112;-53
2021/11/23 02:08:56;;;;;;;8.15;5.03;;;;;;;1.31;90.90;102436.53;4995233;28;20030;-53
2021/11/23 02:11:21;;;;;;;7.90;4.13;;;;;;;1.27;91.33;102436.97;4995542;28;20018;-54
2021/11/23 02:13:47;;;;;;;11.02;4.32;;;;;;;1.35;90.99;102442.34;4996320;28;20399;-52
2021/11/23 02:16:13;;;;;;;7.32;4.05;;;;;;;1.44;90.17;102436.19;4995133;28;20384;-52
2021/11/23 02:18:39;;;;;;;10.75;4.45;;;;;;;1.49;89.39;102445.34;4996447;28;20144;-53
2021/11/23 02:21:04;;;;;;;6.55;4.10;;;;;;;1.46;90.55;102447.44;4992812;28;20041;-50
2021/11/23 02:23:30;;;;;;;8.43;4.50;;;;;;;1.47;90.67;102444.66;4993767;28;20116;-53
2021/11/23 02:25:56;;;;;;;7.65;4.20;;;;;;;1.50;90.73;102444.34;4995570;28;20026;-52
2021/11/23 02:28:22;;;;;;;7.63;4.57;;;;;;;1.50;91.61;102436.44;4996281;28;20046;-50
2021/11/23 02:30:52;;;;;;;8.63;3.72;;;;;;;1.51;91.51;102431.97;4994052;28;20053;-54
2021/11/23 02:33:21;;;;;;;10.25;4.90;;;;;;;1.56;91.55;102435.00;4994701;28;20048;-51
2021/11/23 02:35:50;;;;;;;8.38;4.50;;;;;;;1.48;92.05;102425.19;4996100;28;20026;-52
2021/11/23 02:38:20;;;;;;;9.27;4.10;;;;;;;1.59;92.28;102421.47;4992166;28;20084;-52
2021/11/23 02:40:46;;;;;;;9.43;4.32;;;;;;;1.61;93.51;102422.16;4996551;28;20109;-53
2021/11/23 02:43:12;;;;;;;10.88;4.40;;;;;;;1.66;92.70;102424.38;4991773;28;20109;-50
2021/11/23 02:45:37;;;;;;;9.27;4.47;;;;;;;1.69;92.77;102424.09;4995169;28;20038;-51
2021/11/23 02:48:07;;;;;;;8.82;4.57;;;;;;;1.70;93.45;102423.09;4994191;28;20029;-49
2021/11/23 02:50:33;;;;;;;9.00;4.75;;;;;;;1.69;94.12;102429.38;4991993;28;20295;-53
2021/11/23 02:52:59;;;;;;;10.23;4.68;;;;;;;1.79;93.29;102416.91;4992808;28;20045;-50
2021/11/23 02:55:27;;;;;;;9.70;4.88;;;;;;;1.77;94.12;102421.50;4995162;28;20037;-50
2021/11/23 02:57:53;;;;;;;11.27;4.82;;;;;;;1.72;94.79;102424.59;4996862;28;20060;-52
2021/11/23 03:00:24;;;;;;;10.35;4.38;;;;;;;1.74;94.61;102419.19;4993245;28;20392;-52
2021/11/23 03:02:51;;;;;;;13.43;4.97;;;;;;;1.75;94.33;102428.75;4995959;28;20125;-52
2021/11/23 03:05:19;;;;;;;13.52;4.93;;;;;;;1.78;94.19;102423.16;4993040;28;20145;-53
2021/11/23 03:07:45;;;;;;;10.98;5.75;;;;;;;1.81;94.06;102429.00;4996356;28;20033;-53
2021/11/23 03:10:12;;;;;;;12.68;6.55;;;;;;;1.81;94.07;102428.19;4995015;28;20033;-53
2021/11/23 03:12:39;;;;;;;18.17;6.97;;;;;;;1.85;93.70;102432.19;4992528;28;20175;-53
2021/11/23 03:15:09;;;;;;;13.23;6.35;;;;;;;1.76;95.29;102420.69;4996810;28;20045;-53
2021/11/23 03:17:35;;;;;;;10.45;5.35;;;;;;;1.80;95.60;102423.88;4993694;28;20053;-52
2021/11/23 03:20:01;;;;;;;10.73;5.65;;;;;;;1.84;95.85;102412.03;4997380;28;20034;-50
2021/11/23 03:22:26;;;;;;;14.40;6.10;;;;;;;1.91;95.14;102410.44;4995648;28;20417;-53
2021/11/23 03:24:52;;;;;;;15.55;6.22;;;;;;;1.87;95.67;102419.66;4994922;28;20104;-53
2021/11/23 03:27:18;;;;;;;12.98;5.85;;;;;;;1.91;95.54;102407.78;4993281;28;20046;-51
2021/11/23 03:29:44;;;;;;;13.15;5.55;;;;;;;1.81;96.64;102397.31;4993024;28;20034;-54
2021/11/23 03:32:11;;;;;;;15.60;6.28;;;;;;;1.86;96.72;102391.56;4992091;28;20022;-51
2021/11/23 03:34:38;;;;;;;8.52;4.88;;;;;;;1.84;98.10;102376.84;4992865;28;20136;-51
2021/11/23 03:37:15;;;;;;;15.48;5.63;;;;;;;1.98;100.00;102379.78;4993039;28;20027;-53
2021/11/23 03:39:41;;;;;;;10.32;5.28;;;;;;;2.04;100.00;102371.22;4990770;28;20022;-53
2021/11/23 03:42:07;;;;;;;9.38;5.43;;;;;;;2.16;100.00;102361.25;4995204;28;20550;-50
2021/11/23 03:44:34;;;;;;;13.13;5.40;;;;;;;2.25;100.00;102362.97;4992138;28;20496;-53
2021/11/23 03:47:01;;;;;;;9.77;4.40;;;;;;;2.51;100.00;102359.50;4995649;28;20029;-50
2021/11/23 03:49:27;;;;;;;10.20;4.43;;;;;;;2.67;100.00;102364.91;4991290;28;20041;-51
2021/11/23 03:51:53;;;;;;;10.75;4.45;;;;;;;2.79;100.00;102363.66;4993627;28;20077;-52
2021/11/23 03:54:19;;;;;;;11.35;5.07;;;;;;;2.93;100.00;102362.25;4988736;28;20022;-50
2021/11/23 03:56:47;;;;;;;13.27;4.72;;;;;;;3.07;100.00;102374.88;4992214;28;20030;-53
2021/11/23 03:59:13;;;;;;;8.32;4.15;;;;;;;3.22;100.00;102370.63;4992911;28;20037;-51
2021/11/23 04:01:39;;;;;;;8.73;4.53;;;;;;;3.28;100.00;102362.06;4992768;28;20509;-50
2021/11/23 04:04:05;;;;;;;7.30;3.67;;;;;;;3.40;100.00;102370.50;4992724;28;20022;-50
2021/11/23 04:06:30;;;;;;;7.68;4.47;;;;;;;3.47;100.00;102366.25;4993701;28;20552;-51
2021/11/23 04:08:56;;;;;;;12.73;4.40;;;;;;;3.47;100.00;102371.53;4993967;28;20029;-50
2021/11/23 04:11:21;;;;;;;8.57;4.18;;;;;;;3.57;100.00;102374.03;4991921;28;20026;-50
2021/11/23 04:13:47;;;;;;;5.60;3.60;;;;;;;3.51;100.00;102375.53;4989525;28;20096;-54
2021/11/23 04:16:13;;;;;;;10.43;5.00;;;;;;;3.53;100.00;102378.00;4994411;28;20045;-50
2021/11/23 04:18:38;;;;;;;13.65;5.03;;;;;;;3.55;100.00;102376.84;4993398;28;20042;-51
2021/11/23 04:21:04;;;;;;;9.77;4.53;;;;;;;3.56;100.00;102375.03;4991348;28;20033;-50
2021/11/23 04:23:30;;;;;;;10.52;5.55;;;;;;;3.47;100.00;102366.25;4992027;28;20457;-52
2021/11/23 04:25:56;;;;;;;8.50;4.75;;;;;;;3.50;100.00;102365.91;4990872;28;20026;-50
2021/11/23 04:28:22;;;;;;;10.00;5.32;;;;;;;3.51;100.00;102366.75;4996387;28;20026;-51
2021/11/23 04:30:48;;;;;;;10.75;4.93;;;;;;;3.63;100.00;102358.34;4994281;28;20034;-53
2021/11/23 04:33:14;;;;;;;15.73;5.90;;;;;;;3.56;100.00;102375.84;4996884;28;20511;-51
2021/11/23 04:35:43;;;;;;;11.65;6.15;;;;;;;3.58;100.00;102373.88;4997612;28;20034;-50
2021/11/23 04:38:10;;;;;;;11.88;5.88;;;;;;;3.58;100.00;102359.78;4995919;28;20040;-50
2021/11/23 04:40:36;;;;;;;9.27;5.57;;;;;;;3.52;100.00;102389.59;4995785;28;20027;-51
2021/11/23 04:43:02;;;;;;;13.80;5.75;;;;;;;3.59;100.00;102372.91;4997721;28;20301;-53
2021/11/23 04:45:28;;;;;;;14.80;6.88;;;;;;;3.63;100.00;102365.47;4995953;28;20041;-52
2021/11/23 04:47:55;;;;;;;10.55;5.63;;;;;;;3.63;100.00;102371.59;4997943;28;20033;-51
2021/11/23 04:50:20;;;;;;;9.98;5.70;;;;;;;3.59;100.00;102374.69;4995422;28;20033;-50
2021/11/23 04:52:46;;;;;;;15.85;6.70;;;;;;;3.63;100.00;102363.63;4998233;28;20026;-54
2021/11/23 04:55:11;;;;;;;13.05;7.22;;;;;;;3.56;100.00;102361.78;4994742;28;20056;-49
2021/11/23 04:57:37;;;;;;;12.57;6.28;;;;;;;3.65;100.00;102371.44;4994804;28;20163;-52
2021/11/23 05:00:06;;;;;;;12.68;7.20;;;;;;;3.66;100.00;102372.25;4996226;28;20392;-54
2021/11/23 05:02:32;;;;;;;15.40;7.22;;;;;;;3.69;100.00;102370.09;4997396;28;20041;-53
2021/11/23 05:04:57;;;;;;;12.95;6.03;;;;;;;3.78;100.00;102363.84;4997260;28;20029;-50
2021/11/23 05:07:23;;;;;;;14.52;7.65;;;;;;;3.70;100.00;102371.75;4997552;28;20499;-50
2021/11/23 05:09:48;;;;;;;12.32;6.95;;;;;;;3.66;100.00;102365.13;4997062;28;20026;-52
2021/11/23 05:12:14;;;;;;;16.88;8.43;;;;;;;3.63;100.00;102366.28;4995168;28;20690;-50
2021/11/23 05:14:39;;;;;;;13.95;7.05;;;;;;;3.64;100.00;102360.00;4995172;28;20049;-51
2021/11/23 05:17:05;;;;;;;17.65;8.95;;;;;;;3.60;100.00;102356.00;4996870;28;20137;-52
2021/11/23 05:19:30;;;;;;;13.57;7.82;;;;;;;3.59;100.00;102356.16;4997020;28;20037;-54
2021/11/23 05:21:56;;;;;;;12.68;7.03;;;;;;;3.58;100.00;102357.97;4993925;28;20056;-51
2021/11/23 05:24:22;;;;;;;11.77;6.28;;;;;;;3.72;100.00;102353.84;4994265;28;20026;-53
2021/11/23 05:26:48;;;;;;;13.50;6.68;;;;;;;3.72;100.00;102348.56;4996918;28;20026;-54
2021/11/23 05:29:14;;;;;;;13.73;7.60;;;;;;;3.74;100.00;102343.09;4996032;28;20125;-53
2021/11/23 05:31:40;;;;;;;12.55;6.70;;;;;;;3.74;100.00;102345.75;4994999;28;20032;-52
2021/11/23 05:34:06;;;;;;;15.23;6.90;;;;;;;3.80;100.00;102347.75;4994023;28;20034;-51
2021/11/23 05:36:32;;;;;;;11.38;6.07;;;;;;;3.76;100.00;102339.28;4993550;28;20402;-52
2021/11/23 05:38:57;;;;;;;13.27;6.65;;;;;;;3.85;100.00;102332.19;4990805;28;20527;-52
2021/11/23 05:41:23;;;;;;;13.05;6.88;;;;;;;3.90;100.00;102340.47;4997471;28;20056;-50
2021/11/23 05:43:48;;;;;;;13.00;6.63;;;;;;;3.94;100.00;102334.66;4997771;28;20034;-53
2021/11/23 05:46:14;;;;;;;15.65;7.65;;;;;;;3.91;100.00;102348.25;4996353;28;20033;-50
2021/11/23 05:48:40;;;;;;;14.25;6.03;;;;;;;3.98;100.00;102351.09;5000467;28;20256;-52
2021/11/23 05:51:06;;;;;;;10.25;6.18;;;;;;;3.93;100.00;102361.34;4992960;28;20117;-51
2021/11/23 05:53:34;;;;;;;10.10;5.60;;;;;;;3.96;100.00;102361.03;4996986;28;20060;-51
2021/11/23 05:56:02;;;;;;;11.20;4.88;;;;;;;4.10;100.00;102367.47;4995814;28;20053;-50
2021/11/23 05:58:28;;;;;;;11.32;5.53;;;;;;;4.06;100.00;102380.25;5023557;23;20049;-80
2021/11/23 06:00:54;;;;;;;8.93;5.60;;;;;;;4.18;100.00;102370.16;5025350;28;20022;-80
2021/11/23 06:03:19;;;;;;;9.02;5.18;;;;;;;4.21;100.00;102367.16;5023043;28;20079;-80
2021/11/23 06:05:45;;;;;;;11.07;5.07;;;;;;;4.28;100.00;102365.47;5021280;28;20033;-80
2021/11/23 06:08:11;;;;;;;9.57;5.57;;;;;;;4.24;100.00;102374.78;5028463;28;20048;-79
2021/11/23 06:10:37;;;;;;;7.75;5.10;;;;;;;4.25;100.00;102371.13;5027238;28;20055;-79
2021/11/23 06:13:03;;;;;;;12.07;4.57;;;;;;;4.36;100.00;102378.75;5025567;28;20021;-79
2021/11/23 06:15:29;;;;;;;9.10;5.35;;;;;;;4.30;100.00;102378.59;5027751;28;20029;-80
2021/11/23 06:18:02;;;;;;;9.10;4.97;;;;;;;4.32;100.00;102380.09;5027152;28;20034;-80
2021/11/23 06:20:33;;;;;;;10.23;5.18;;;;;;;4.38;100.00;102375.94;5025870;28;20025;-81
2021/11/23 06:23:00;;;;;;;13.02;5.68;;;;;;;4.40;100.00;102372.13;5025465;28;20018;-81
2021/11/23 06:25:27;;;;;;;9.70;5.15;;;;;;;4.41;100.00;102389.69;5021626;28;20071;-82
2021/11/23 06:27:53;;;;;;;10.98;5.72;;;;;;;4.39;100.00;102386.38;5021376;28;20021;-82
2021/11/23 06:30:19;;;;;;;9.68;5.78;;;;;;;4.41;100.00;102384.38;5023462;28;20055;-82
2021/11/23 06:32:45;;;;;;;11.52;6.00;;;;;;;4.44;100.00;102391.19;5020899;28;20030;-81
2021/11/23 06:35:11;;;;;;;9.40;5.20;;;;;;;4.45;100.00;102414.91;5021589;28;20026;-81
2021/11/23 06:37:37;;;;;;;10.68;5.60;;;;;;;4.48;100.00;102392.50;5016255;28;20412;-82
2021/11/23 06:40:05;;;;;;;9.75;5.47;;;;;;;4.55;100.00;102399.63;5018433;28;20506;-81
2021/11/23 06:42:30;;;;;;;12.15;5.13;;;;;;;4.47;100.00;102402.28;5020981;28;20029;-81
2021/11/23 06:44:56;;;;;;;8.75;5.50;;;;;;;4.53;100.00;102406.94;5021825;28;20037;-81
2021/11/23 06:47:21;;;;;;;8.80;5.03;;;;;;;4.57;100.00;102414.56;5022176;28;20029;-81
2021/11/23 06:49:48;;;;;;;8.27;5.40;;;;;;;4.62;100.00;102412.22;5023655;28;20033;-81
2021/11/23 06:52:14;;;;;;;8.98;5.50;;;;;;;4.61;100.00;102413.22;5026580;28;20033;-81
2021/11/23 06:54:40;;;;;;;9.30;5.15;;;;;;;4.64;100.00;102415.53;5019317;28;20120;-81
2021/11/23 06:57:06;;;;;;;8.90;4.97;;;;;;;4.68;100.00;102430.16;5021544;28;20490;-82
2021/11/23 06:59:31;;;;;;;10.90;6.40;;;;;;;4.71;100.00;102429.81;5022645;28;20116;-81
2021/11/23 07:01:57;;;;;;;10.50;6.10;;;;;;;4.66;100.00;102421.50;5027018;28;20101;-82
2021/11/23 07:04:22;;;;;;;10.70;6.50;;;;;;;4.66;100.00;102421.50;5021105;28;20033;-81
2021/11/23 07:06:48;;;;;;;11.48;6.28;;;;;;;4.71;100.00;102408.59;5021372;28;20037;-81
2021/11/23 07:09:15;;;;;;;11.13;5.25;;;;;;;4.73;100.00;102422.50;5021166;28;20021;-81
2021/11/23 07:11:40;;;;;;;14.25;6.28;;;;;;;4.69;100.00;102421.19;5020581;28;20095;-81
2021/11/23 07:14:06;;;;;;;12.60;5.47;;;;;;;4.80;100.00;102418.19;5020941;28;20030;-81
2021/11/23 07:16:33;;;;;;;13.48;5.63;;;;;;;4.78;100.00;102439.59;5021143;28;20026;-82
2021/11/23 07:18:59;;;;;;;10.85;6.45;;;;;;;4.71;100.00;102446.59;5017634;28;20112;-81
2021/11/23 07:21:28;;;;;;;9.30;5.78;;;;;;;4.73;100.00;102449.06;5015593;28;20026;-81
2021/11/23 07:23:54;;;;;;;10.77;5.22;;;;;;;4.86;100.00;102452.03;5031678;28;20060;-82
2021/11/23 07:26:20;;;;;;;12.30;5.80;;;;;;;4.81;100.00;102452.53;5019568;28;20452;-81
2021/11/23 07:28:46;;;;;;;9.82;5.47;;;;;;;4.94;100.00;102452.00;5017641;28;20057;-82
2021/11/23 07:31:11;;;;;;;9.65;5.20;;;;;;;4.90;100.00;102456.00;5019127;28;20022;-82
2021/11/23 07:33:38;;;;;;;9.00;5.13;;;;;;;4.96;100.00;102454.50;5023067;28;20033;-81
2021/11/23 07:36:03;;;;;;;10.55;5.40;;;;;;;4.95;100.00;102451.00;5019140;28;20029;-82
2021/11/23 07:38:29;;;;;;;11.65;5.57;;;;;;;5.08;100.00;102450.50;5021617;28;20068;-82
2021/11/23 07:40:54;;;;;;;10.50;5.63;;;;;;;5.07;100.00;102452.31;5024753;28;20027;-82
2021/11/23 07:43:20;;;;;;;10.25;5.75;;;;;;;5.11;100.00;102453.63;5017319;28;20467;-82
2021/11/23 07:45:45;;;;;;;11.65;5.50;;;;;;;5.16;100.00;102455.78;5023766;28;20144;-81
2021/11/23 07:48:11;;;;;;;9.05;6.10;;;;;;;5.12;100.00;102454.47;5022653;28;20024;-82
2021/11/23 07:50:40;;;;;;;7.57;4.93;;;;;;;5.14;100.00;102453.28;5022403;28;20032;-82
2021/11/23 07:53:06;;;;;;;9.18;5.13;;;;;;;5.14;100.00;102461.25;5024629;28;20029;-81
2021/11/23 07:55:32;;;;;;;7.18;5.07;;;;;;;5.12;100.00;102449.97;5017922;28;20505;-82
2021/11/23 07:57:57;;;;;;;9.07;4.88;;;;;;;5.22;100.00;102454.28;5019286;28;20037;-81
2021/11/23 08:00:23;;;;;;;9.32;5.15;;;;;;;5.26;100.00;102463.56;5023154;28;20025;-81
2021/11/23 08:02:49;;;;;;;10.60;5.93;;;;;;;5.30;100.00;102463.03;5017875;28;20112;-81
2021/11/23 08:05:15;;;;;;;7.90;5.00;;;;;;;5.26;99.72;102469.72;5019071;28;20088;-81
2021/11/23 08:07:41;;;;;;;9.02;4.35;;;;;;;5.29;99.96;102460.56;5021316;28;20587;-81
2021/11/23 08:10:07;;;;;;;11.23;5.25;;;;;;;5.32;100.00;102465.53;5015385;28;20034;-82
2021/11/23 08:12:33;;;;;;;10.70;5.75;;;;;;;5.33;100.00;102451.25;5022073;28;20025;-81
2021/11/23 08:15:02;;;;;;;7.93;5.13;;;;;;;5.38;100.00;102456.84;5021475;28;20147;-81
2021/11/23 08:17:27;;;;;;;9.98;5.47;;;;;;;5.36;100.00;102469.50;5022104;28;20036;-81
2021/11/23 08:19:53;;;;;;;12.68;6.20;;;;;;;5.41;99.80;102465.34;5034517;28;20030;-81
2021/11/23 08:22:18;;;;;;;10.93;5.60;;;;;;;5.39;99.81;102469.19;5017813;28;20022;-81
2021/11/23 08:24:44;;;;;;;12.45;5.65;;;;;;;5.41;100.00;102467.16;5022553;28;20045;-81
2021/11/23 08:27:10;;;;;;;12.07;6.38;;;;;;;5.31;100.00;102474.50;5024604;28;20064;-82
2021/11/23 08:29:36;;;;;;;8.52;4.95;;;;;;;5.35;100.00;102468.66;5018839;28;20053;-81
2021/11/23 08:32:03;;;;;;;8.93;5.63;;;;;;;5.44;100.00;102469.47;5017352;28;20057;-81
2021/11/23 08:34:28;;;;;;;10.52;5.28;;;;;;;5.56;100.00;102475.22;5023807;28;20125;-81
2021/11/23 08:36:55;;;;;;;8.75;5.20;;;;;;;5.50;99.99;102478.59;5023572;28;20092;-82
2021/11/23 08:39:21;;;;;;;8.77;5.75;;;;;;;5.47;100.00;102482.44;5019261;28;20021;-81
2021/11/23 08:41:47;;;;;;;10.05;5.68;;;;;;;5.52;99.96;102482.72;5017887;28;20044;-81
2021/11/23 08:44:14;;;;;;;9.68;5.28;;;;;;;5.56;99.58;102494.66;5016761;28;20033;-81
2021/11/23 08:46:40;;;;;;;8.40;5.55;;;;;;;5.52;99.67;102493.38;5020996;28;20029;-81
2021/11/23 08:49:06;;;;;;;11.52;5.15;;;;;;;5.58;99.93;102495.34;5014105;28;20185;-82
2021/11/23 08:51:35;;;;;;;10.88;6.20;;;;;;;5.51;100.00;102499.69;5022511;28;20641;-82
2021/11/23 08:54:02;;;;;;;12.65;5.50;;;;;;;5.59;100.00;102499.66;5020145;28;20033;-83
2021/11/23 08:56:33;;;;;;;11.45;5.57;;;;;;;5.65;100.00;102501.63;5021012;28;20495;-83
2021/11/23 08:59:01;;;;;;;11.40;5.70;;;;;;;5.69;100.00;102502.09;5018257;28;20030;-82
2021/11/23 09:01:27;;;;;;;16.83;6.72;;;;;;;5.79;100.00;102510.72;5019249;28;20017;-83
2021/11/23 09:03:54;;;;;;;15.30;6.05;;;;;;;5.72;100.00;102505.25;5019761;28;20030;-83
2021/11/23 09:06:23;;;;;;;12.55;6.47;;;;;;;5.82;100.00;102501.56;5016640;28;20380;-84
2021/11/23 09:08:58;;;;;;;13.32;6.32;;;;;;;5.97;100.00;102513.16;5015487;28;20064;-83
2021/11/23 09:11:25;;;;;;;13.07;6.20;;;;;;;5.92;100.00;102512.81;5016203;28;20095;-83
2021/11/23 09:13:53;;;;;;;17.05;7.15;;;;;;;5.92;100.00;102531.44;5018753;28;20029;-83
2021/11/23 09:16:19;;;;;;;14.05;7.13;;;;;;;5.85;100.00;102520.66;5026635;28;20388;-84
2021/11/23 09:18:44;;;;;;;12.93;7.68;;;;;;;5.76;100.00;102521.72;5025440;28;20068;-83
2021/11/23 09:21:10;;;;;;;18.38;7.22;;;;;;;5.73;100.00;102517.53;5020297;28;20471;-83
2021/11/23 09:23:36;;;;;;;19.10;8.63;;;;;;;5.72;100.00;102523.84;5023054;28;20033;-83
2021/11/23 09:26:02;;;;;;;18.92;8.52;;;;;;;5.60;100.00;102525.25;5025020;28;20022;-83
2021/11/23 09:28:27;;;;;;;20.00;9.00;;;;;;;5.53;100.00;102526.91;5028069;28;20031;-83
2021/11/23 09:30:53;;;;;;;17.88;8.25;;;;;;;5.57;100.00;102519.47;5019704;28;20030;-83
2021/11/23 09:33:18;;;;;;;16.52;7.70;;;;;;;5.61;100.00;102521.59;5017677;28;20030;-83
2021/11/23 09:35:44;;;;;;;20.92;7.75;;;;;;;5.61;100.00;102524.25;5020706;28;20075;-83
2021/11/23 09:38:09;;;;;;;20.33;7.90;;;;;;;5.57;100.00;102516.81;5025642;28;20079;-83
2021/11/23 09:40:36;;;;;;;19.35;7.65;;;;;;;5.61;100.00;102510.97;5022235;28;20025;-83
2021/11/23 09:43:01;;;;;;;25.63;9.30;;;;;;;5.61;100.00;102513.63;5019543;28;20087;-83
2021/11/23 09:45:27;;;;;;;22.77;7.85;;;;;;;5.64;100.00;102507.94;5020314;28;20037;-83
2021/11/23 09:47:53;;;;;;;19.15;7.13;;;;;;;5.68;100.00;102514.56;5019025;28;20044;-83
2021/11/23 09:50:19;;;;;;;16.50;7.63;;;;;;;5.72;100.00;102509.72;5027084;28;20026;-84
2021/11/23 09:52:45;;;;;;;18.38;7.60;;;;;;;5.73;100.00;102504.25;5032450;28;20029;-83
2021/11/23 09:55:13;;;;;;;23.65;8.93;;;;;;;5.82;100.00;102505.03;5021413;28;20072;-83
2021/11/23 09:57:39;;;;;;;17.88;9.45;;;;;;;5.89;100.00;102503.34;5021102;28;20022;-84
2021/11/23 10:00:24;;;;;;;23.58;10.93;;;;;;;5.98;100.00;102501.50;5022667;28;20091;-83
2021/11/23 10:02:50;;;;;;;16.77;7.93;;;;;;;6.00;100.00;102507.47;5019260;28;20092;-83
2021/11/23 10:05:16;;;;;;;20.90;9.60;;;;;;;5.97;100.00;102503.34;5018486;28;20022;-83
2021/11/23 10:07:43;;;;;;;20.83;9.32;;;;;;;6.01;100.00;102504.66;5027606;28;20663;-83
2021/11/23 10:10:21;;;;;;;20.00;8.90;;;;;;;6.03;100.00;102505.28;5022525;28;20033;-84
2021/11/23 10:12:59;;;;;;;23.88;9.38;;;;;;;6.03;100.00;102507.97;5016889;28;20025;-84
2021/11/23 10:15:28;;;;;;;23.75;10.07;;;;;;;5.98;100.00;102509.50;5016387;28;20158;-83
2021/11/23 10:18:12;;;;;;;23.98;10.50;;;;;;;5.96;100.00;102516.81;5022396;28;20086;-83
2021/11/23 10:20:51;;;;;;;25.75;9.75;;;;;;;5.99;100.00;102505.81;5019981;28;20024;-83
2021/11/23 10:23:19;;;;;;;27.88;10.52;;;;;;;6.04;100.00;102504.28;5021281;28;20024;-83
2021/11/23 10:25:49;;;;;;;24.35;9.48;;;;;;;6.00;100.00;102515.47;5020307;28;20092;-83
2021/11/23 10:28:16;;;;;;;20.00;9.20;;;;;;;6.08;100.00;102512.75;5033604;28;20462;-83
2021/11/23 10:30:45;;;;;;;22.15;10.00;;;;;;;6.10;100.00;102513.41;5018458;28;20017;-83
2021/11/23 10:33:12;;;;;;;22.63;9.27;;;;;;;6.11;100.00;102509.75;5015281;28;20084;-83
2021/11/23 10:35:40;;;;;;;22.90;9.63;;;;;;;6.21;100.00;102504.19;5018041;28;20045;-83
2021/11/23 10:38:08;;;;;;;22.25;9.63;;;;;;;6.12;100.00;102506.09;5026423;28;20487;-84
2021/11/23 10:40:35;;;;;;;27.95;10.35;;;;;;;6.05;100.00;102497.13;5023892;28;20013;-84
2021/11/23 10:43:06;;;;;;;23.83;10.07;;;;;;;6.26;100.00;102507.97;5023451;28;20392;-83
2021/11/23 10:45:46;;;;;;;28.60;9.90;;;;;;;6.26;100.00;102507.97;5019526;28;20909;-83
2021/11/23 10:48:14;;;;;;;19.65;8.88;;;;;;;6.36;100.00;102502.44;5016610;28;20067;-83
2021/11/23 10:50:41;;;;;;;22.50;9.15;;;;;;;6.52;100.00;102504.16;5020480;28;20144;-83
2021/11/23 10:53:16;;;;;;;17.55;8.20;;;;;;;6.57;100.00;102509.75;5020410;28;20018;-83
2021/11/23 10:55:44;;;;;;;22.98;10.23;;;;;;;6.65;100.00;102504.38;5022539;28;20041;-84
2021/11/23 10:58:12;;;;;;;23.30;8.63;;;;;;;6.74;100.00;102494.47;5028017;28;20048;-84
2021/11/23 11:00:44;;;;;;;21.45;8.93;;;;;;;6.62;100.00;102488.75;5025667;28;20035;-83
2021/11/23 11:03:12;;;;;;;21.63;8.63;;;;;;;6.74;100.00;102481.97;5020535;28;20100;-83
2021/11/23 11:05:41;;;;;;;16.23;7.93;;;;;;;6.78;100.00;102480.59;5018704;28;20041;-83
2021/11/23 11:08:08;;;;;;;16.27;7.32;;;;;;;6.81;100.00;102485.56;5020200;28;20034;-84
2021/11/23 11:10:36;;;;;;;19.75;8.68;;;;;;;6.77;100.00;102475.47;5017055;28;20030;-83
2021/11/23 11:13:05;;;;;;;14.43;7.63;;;;;;;6.88;100.00;102475.03;5017427;28;20487;-82
2021/11/23 11:15:45;;;;;;;17.17;7.82;;;;;;;6.79;100.00;102486.75;5021024;28;20067;-84
2021/11/23 11:18:13;;;;;;;15.02;7.68;;;;;;;6.97;100.00;102482.75;5034999;28;20053;-83
2021/11/23 11:21:00;;;;;;;14.38;7.15;;;;;;;6.96;100.00;102488.25;5019780;28;20025;-84